ADDS METAR Data INFO
IDs: Format: Raw Decoded Include TAF

Data at: 1237 UTC 22 Feb 2018

PAIN 221156Z AUTO VRB04KT 9SM -SN BKN039 OVC050 M01/M06 A2997 RMK AO2 SNB27 SLP185 P0000 60000 T10111061 10000 21022 56026 FZRANO
PAIN 221056Z AUTO 13008KT 100V180 10SM BKN041 OVC055 M01/M07 A2999 RMK AO2 SLP193 T10061067 FZRANO
PAIN 220956Z AUTO VRB05KT 10SM OVC070 M01/M07 A3002 RMK AO2 SLP204 T10111072 FZRANO
PAIN 220856Z AUTO VRB04KT 10SM SCT055 BKN120 M01/M08 A3005 RMK AO2 SLP219 T10111083 410111222 56021 FZRANO
PAIN 220756Z AUTO VRB04KT 10SM BKN110 M02/M09 A3008 RMK AO2 SLP229 T10171089 FZRANO
PAIN 220656Z AUTO VRB05KT 10SM BKN060 M02/M09 A3009 RMK AO2 SLP236 T10171089 FZRANO
PAIN 220556Z AUTO VRB05KT 10SM FEW049 OVC065 M02/M09 A3012 RMK AO2 SLP247 60000 T10221089 11022 21039 58025 FZRANO
PAIN 220456Z AUTO 00000KT 10SM OVC045 M03/M09 A3014 RMK AO2 SNB0358E24 SLP258 P0000 T10281089 FZRANO
PAIN 220356Z AUTO 00000KT 10SM OVC045 M03/M09 A3017 RMK AO2 SNE10 SLP269 P0000 T10331089 FZRANO
PAIN 220021Z AUTO 00000KT 8SM -SN OVC030 M04/M07 A3025 RMK AO2 P0000 FZRANO
PAIN 212356Z AUTO 00000KT 7SM -SN SCT017 BKN022 OVC032 M04/M07 A3026 RMK AO2 SNB13 SLP297 P0000 60000 T10391072 11039 21183 56013 FZRANO
PAIN 212344Z AUTO 27003KT 2SM -SN BKN017 OVC065 M04/M07 A3026 RMK AO2 SNB13 P0000 FZRANO
PAIN 212331Z AUTO 24003KT 1 3/4SM -SN SCT017 OVC060 M04/M09 A3027 RMK AO2 SNB13 P0000 FZRANO
PAIN 212256Z AUTO 00000KT 10SM OVC060 M07/M12 A3027 RMK AO2 SLP304 T10671117 FZRANO
PAIN 212156Z AUTO 00000KT 10SM OVC075 M09/M14 A3028 RMK AO2 SLP308 T10941139 FZRANO
PAIN 212056Z AUTO 00000KT 10SM OVC075 M12/M15 A3030 RMK AO2 SLP316 T11221150 58015 FZRANO
PAIN 211956Z AUTO 00000KT 10SM BKN070 OVC100 M14/M17 A3032 RMK AO2 SLP324 T11441167 FZRANO
PAIN 211856Z AUTO 00000KT 10SM OVC090 M17/M19 A3033 RMK AO2 SLP328 T11671189 FZRANO
PAIN 211756Z AUTO 00000KT 10SM BKN110 M18/M21 A3034 RMK AO2 SLP333 T11831206 11183 21222 56017 FZRANO
PAIN 211656Z AUTO 00000KT 10SM BKN110 M20/M22 A3035 RMK AO2 SLP337 T12001217 FZRANO
PAIN 211556Z AUTO 00000KT 10SM CLR M21/M23 A3037 RMK AO2 SLP343 T12111233 FZRANO
PAIN 211456Z AUTO 00000KT 10SM CLR M21/M23 A3039 RMK AO2 SLP347 T12111228 56009 FZRANO
PAIN 211356Z AUTO 00000KT 10SM CLR M21/M23 A3040 RMK AO2 SLP345 T12061228 FZRANO
PAIN 211256Z AUTO 00000KT 10SM CLR M20/M22 A3041 RMK AO2 SLP348 T12001222 FZRANO
PAIN 210756Z AUTO 00000KT 10SM CLR M16/M18 A3043 RMK AO2 SLP357 T11611183 FZRANO
PAIN 210656Z AUTO 00000KT 10SM CLR M14/M17 A3044 RMK AO2 SLP361 T11391167 FZRANO
PAIN 210556Z AUTO 00000KT 10SM CLR M12/M15 A3045 RMK AO2 SLP362 60000 T11221150 10006 21122 50003 FZRANO